Atlantic, Iowa
Current Conditions -  °F | °C
As of 11:55 PM on Thursday 30 Oct 2014 (Local Time) from KAIO Reporting Station
Overcast Overcast  
Wind Chill: 31°   Ceiling: 2600
Heat Index: 41°   Visibility: 10mi
Dew Point: 32°   Wind: 24mph
Humidity: 70%   Direction: 360°N
Pressure: 30.33"   Gusts: 33mph
Location:  41.4°N, 95.01°W
Report Text: KAIO 310455Z AUTO 36021G29KT 10SM OVC026 05/00 A3033 RMK AO2
Loading
Personal Weather Stations






























Interactive Weather Map New forecast layout! Learn more

10-Day Weather Forecast

Advertisements
Track Severe Weather on mobile